WetterOnline ( https://www.wetteronline.de )

Wetter aktuell Gottfrieding

Aktuelles Wetter: Gottfrieding (350m)

6-stündlich | Neueste Meldungen
Ortszeit Temperatur Wetter
Di, 23.04. 14:00 19.6° C wolkig
Di, 23.04. 8:00 12.3° C wolkig
Di, 23.04. 2:00 13.1° C wolkig
Mo, 22.04. 20:00 19.3° C leicht bewölkt
Mo, 22.04. 14:00 22.1° C leicht bewölkt
Mo, 22.04. 8:00 8.0° C wolkenlos
Mo, 22.04. 2:00 4.7° C wolkenlos
So, 21.04. 20:00 18.3° C wolkenlos
Ortszeit Temperatur Wetter
Di, 23.04. 15:30 19.8° C bedeckt
Di, 23.04. 15:20 19.8° C bedeckt
Di, 23.04. 15:10 19.4° C bedeckt
Di, 23.04. 15:00 20.4° C wolkig
Di, 23.04. 14:50 20.4° C bedeckt
Di, 23.04. 14:40 21.1° C bedeckt
Di, 23.04. 14:30 19.8° C bedeckt
Di, 23.04. 14:00 19.6° C wolkig
Di, 23.04. 13:30 19.8° C wolkig
Di, 23.04. 13:00 17.7° C bewölkt
Di, 23.04. 12:30 17.2° C bewölkt
Ortszeit Relative Feuchte Sichtweite
Di, 23.04. 14:00 41% 16 km
Di, 23.04. 8:00 57% 30 km
Di, 23.04. 2:00 53% 40 km
Mo, 22.04. 20:00 29% 60 km
Mo, 22.04. 14:00 22% 21 km
Mo, 22.04. 8:00 66% 27 km
Mo, 22.04. 2:00 80% 30 km
So, 21.04. 20:00 29% 55 km
Ortszeit Relative Feuchte Sichtweite
Di, 23.04. 15:30 40% 12 km
Di, 23.04. 15:20 40% -
Di, 23.04. 15:10 40% -
Di, 23.04. 15:00 38% 13 km
Di, 23.04. 14:50 38% -
Di, 23.04. 14:40 39% -
Di, 23.04. 14:30 41% 20 km
Di, 23.04. 14:00 41% 16 km
Di, 23.04. 13:30 41% 12 km
Di, 23.04. 13:00 46% 19 km
Di, 23.04. 12:30 48% 28 km
Ortszeit Niederschlagsmenge Niederschlagsart
Di, 23.04. 14:00 0.0 l/m2 in 6 Std. -
Di, 23.04. 8:00 0.0 l/m2 in 12 Std. -
Di, 23.04. 2:00 0.0 l/m2 in 6 Std. -
Mo, 22.04. 20:00 0.0 l/m2 in 12 Std. -
Mo, 22.04. 14:00 0.0 l/m2 in 6 Std. -
Mo, 22.04. 8:00 0.0 l/m2 in 12 Std. -
Mo, 22.04. 2:00 0.0 l/m2 in 6 Std. -
So, 21.04. 20:00 0.0 l/m2 in 12 Std. -
Ortszeit Niederschlagsmenge Niederschlagsart
Di, 23.04. 15:30 0.0 l/m2 in 1 Std. -
Di, 23.04. 15:20 keine Meldung -
Di, 23.04. 15:10 keine Meldung -
Di, 23.04. 15:00 0.0 l/m2 in 1 Std. -
Di, 23.04. 14:50 keine Meldung -
Di, 23.04. 14:40 keine Meldung -
Di, 23.04. 14:30 0.0 l/m2 in 1 Std. -
Di, 23.04. 14:00 0.0 l/m2 in 1 Std. -
Di, 23.04. 13:30 0.0 l/m2 in 1 Std. -
Di, 23.04. 13:00 0.0 l/m2 in 1 Std. -
Di, 23.04. 12:30 0.0 l/m2 in 1 Std. -
Ortszeit Stärke Spitze Richtung
km/h Bft. km/h Grad Sektor
Di, 23.04. 14:00 30 5 44 110° O
Di, 23.04. 8:00 18 3 25 90° O
Di, 23.04. 2:00 19 3 46 90° O
Mo, 22.04. 20:00 22 4 40 80° O
Mo, 22.04. 14:00 18 3 36 100° O
Mo, 22.04. 8:00 0 0 7 - -
Mo, 22.04. 2:00 4 1 7 160° S
So, 21.04. 20:00 7 2 32 110° O
Ortszeit Stärke Spitze Richtung
km/h Bft. km/h Grad Sektor
Di, 23.04. 15:30 33 5 48 110° O
Di, 23.04. 15:20 33 5 - 110° O
Di, 23.04. 15:10 36 5 - 110° O
Di, 23.04. 15:00 31 5 44 110° O
Di, 23.04. 14:50 31 5 - 110° O
Di, 23.04. 14:40 25 4 - 110° O
Di, 23.04. 14:30 26 4 43 100° O
Di, 23.04. 14:00 30 5 44 110° O
Di, 23.04. 13:30 30 5 43 120° SO
Di, 23.04. 13:00 26 4 41 100° O
Di, 23.04. 12:30 24 4 33 110° O
Ortszeit Untergrenze Bedeckung Gattung
total tief tief mittel hoch
Di, 23.04. 14:00 5400 m 8/8 8/8 - - -
Di, 23.04. 8:00 8700 m 8/8 0/8 - - -
Di, 23.04. 2:00 9000 m 8/8 0/8 - - -
Mo, 22.04. 20:00 8400 m 7/8 0/8 - - -
Mo, 22.04. 14:00 9000 m 8/8 0/8 - - -
Mo, 22.04. 8:00 - 0/8 0/8 - - -
Mo, 22.04. 2:00 - 0/8 0/8 - - -
So, 21.04. 20:00 - 0/8 0/8 - - -
Ortszeit Bedeckungsgrad in Achtel und Wolkenuntergrenze
Di, 23.04. 15:30 2(3300m) 8(4500m) 8(5100m)
Di, 23.04. 15:20 2(3300m) 8(4500m) 8(5100m)
Di, 23.04. 15:10 3(3300m) 8(4500m) 8(5100m)
Di, 23.04. 15:00 7(4500m) 7(5100m) 8(6000m)
Di, 23.04. 14:50 7(4500m) 7(5100m) 8(6000m)
Di, 23.04. 14:40 5(4800m) 8(5700m)
Di, 23.04. 14:30 2(3000m) 8(5700m) 8(6600m)
Di, 23.04. 14:00 6(5400m) 8(6300m) 8(7500m)
Di, 23.04. 13:30 1(2700m) 5(5100m) 8(6000m)
Di, 23.04. 13:00 6(2700m) 7(6300m)
Di, 23.04. 12:30 5(2700m) 8(6900m)
Ortszeit Luftdruck NN (hPa) Tendenz (hPa in 3 Std.)
Di, 23.04. 14:00 1001 - 0,4
Di, 23.04. 8:00 1002 - 0,4
Di, 23.04. 2:00 1004 - 2,0
Mo, 22.04. 20:00 1005 - 0,9
Mo, 22.04. 14:00 1008 - 2,5
Mo, 22.04. 8:00 1014 - 0,9
Mo, 22.04. 2:00 1017 - 0,6
So, 21.04. 20:00 1016 - 1,4
Ortszeit Luftdruck NN (hPa) Tendenz (hPa in 3 Std.)
Di, 23.04. 15:30 1001 - 0,3
Di, 23.04. 15:20 1001 keine Meldung
Di, 23.04. 15:10 1001 keine Meldung
Di, 23.04. 15:00 1000 - 0,3
Di, 23.04. 14:50 1000 keine Meldung
Di, 23.04. 14:40 1000 keine Meldung
Di, 23.04. 14:30 1001 - 0,3
Di, 23.04. 14:00 1001 - 0,4
Di, 23.04. 13:30 1000 - 0,6
Di, 23.04. 13:00 1001 - 0,3
Di, 23.04. 12:30 1001 - 0,3
Ortszeit Schneehöhe (cm)
Di, 23.04. 14:00 -
Di, 23.04. 8:00 -
Di, 23.04. 2:00 -
Mo, 22.04. 20:00 -
Mo, 22.04. 14:00 -
Mo, 22.04. 8:00 -
Mo, 22.04. 2:00 -
So, 21.04. 20:00 -
Ortszeit Schneehöhe (cm)
Di, 23.04. 15:30 -
Di, 23.04. 15:20 -
Di, 23.04. 15:10 -
Di, 23.04. 15:00 -
Di, 23.04. 14:50 -
Di, 23.04. 14:40 -
Di, 23.04. 14:30 -
Di, 23.04. 14:00 -
Di, 23.04. 13:30 -
Di, 23.04. 13:00 -
Di, 23.04. 12:30 -
Link zu dieser Seite / Seite empfehlen

Das Wetter in ...